sensor_id;sensor_type;location;lat;lon;timestamp;temperature;humidity
52016;DHT22;38032;53.326;6.472;2022-11-27T00:01:11;6.60;99.90
52016;DHT22;38032;53.326;6.472;2022-11-27T00:03:39;6.60;99.90
52016;DHT22;38032;53.326;6.472;2022-11-27T00:06:05;6.60;99.90
52016;DHT22;38032;53.326;6.472;2022-11-27T00:08:31;6.60;99.90
52016;DHT22;38032;53.326;6.472;2022-11-27T00:11:04;6.60;99.90
52016;DHT22;38032;53.326;6.472;2022-11-27T00:13:30;6.60;99.90
52016;DHT22;38032;53.326;6.472;2022-11-27T00:15:56;6.60;99.90
52016;DHT22;38032;53.326;6.472;2022-11-27T00:18:22;6.60;99.90
52016;DHT22;38032;53.326;6.472;2022-11-27T00:20:48;6.60;99.90
52016;DHT22;38032;53.326;6.472;2022-11-27T00:23:13;6.50;99.90
52016;DHT22;38032;53.326;6.472;2022-11-27T00:25:39;6.50;99.90
52016;DHT22;38032;53.326;6.472;2022-11-27T00:28:05;6.50;99.90
52016;DHT22;38032;53.326;6.472;2022-11-27T00:30:31;6.50;99.90
52016;DHT22;38032;53.326;6.472;2022-11-27T00:32:57;6.50;99.90
52016;DHT22;38032;53.326;6.472;2022-11-27T00:35:23;6.50;99.90
52016;DHT22;38032;53.326;6.472;2022-11-27T00:37:48;6.50;99.90
52016;DHT22;38032;53.326;6.472;2022-11-27T00:40:14;6.50;99.90
52016;DHT22;38032;53.326;6.472;2022-11-27T00:42:40;6.50;99.90
52016;DHT22;38032;53.326;6.472;2022-11-27T00:45:06;6.50;99.90
52016;DHT22;38032;53.326;6.472;2022-11-27T00:47:32;6.40;99.90
52016;DHT22;38032;53.326;6.472;2022-11-27T00:49:58;6.40;99.90
52016;DHT22;38032;53.326;6.472;2022-11-27T00:52:24;6.40;99.90
52016;DHT22;38032;53.326;6.472;2022-11-27T00:54:50;6.40;99.90
52016;DHT22;38032;53.326;6.472;2022-11-27T00:57:16;6.40;99.90
52016;DHT22;38032;53.326;6.472;2022-11-27T00:59:42;6.30;99.90
52016;DHT22;38032;53.326;6.472;2022-11-27T01:02:07;6.30;99.90
52016;DHT22;38032;53.326;6.472;2022-11-27T01:04:33;6.30;99.90
52016;DHT22;38032;53.326;6.472;2022-11-27T01:06:59;6.20;99.90
52016;DHT22;38032;53.326;6.472;2022-11-27T01:09:25;6.20;99.90
52016;DHT22;38032;53.326;6.472;2022-11-27T01:11:51;6.20;99.90
52016;DHT22;38032;53.326;6.472;2022-11-27T01:14:17;6.20;99.90
52016;DHT22;38032;53.326;6.472;2022-11-27T01:16:44;6.10;99.90
52016;DHT22;38032;53.326;6.472;2022-11-27T01:19:11;6.10;99.90
52016;DHT22;38032;53.326;6.472;2022-11-27T01:21:37;6.10;99.90
52016;DHT22;38032;53.326;6.472;2022-11-27T01:24:03;6.10;99.90
52016;DHT22;38032;53.326;6.472;2022-11-27T01:26:30;6.10;99.90
52016;DHT22;38032;53.326;6.472;2022-11-27T01:28:56;6.10;99.90
52016;DHT22;38032;53.326;6.472;2022-11-27T01:31:25;6.10;99.90
52016;DHT22;38032;53.326;6.472;2022-11-27T01:33:53;6.10;99.90
52016;DHT22;38032;53.326;6.472;2022-11-27T01:36:19;6.10;99.90
52016;DHT22;38032;53.326;6.472;2022-11-27T01:38:45;6.10;99.90
52016;DHT22;38032;53.326;6.472;2022-11-27T01:41:18;6.00;99.90
52016;DHT22;38032;53.326;6.472;2022-11-27T01:43:49;6.00;99.90
52016;DHT22;38032;53.326;6.472;2022-11-27T01:48:48;6.00;99.90
52016;DHT22;38032;53.326;6.472;2022-11-27T01:51:15;6.00;99.90
52016;DHT22;38032;53.326;6.472;2022-11-27T01:53:41;6.00;99.90
52016;DHT22;38032;53.326;6.472;2022-11-27T01:56:07;6.00;99.90
52016;DHT22;38032;53.326;6.472;2022-11-27T01:58:34;6.00;99.90
52016;DHT22;38032;53.326;6.472;2022-11-27T02:01:00;6.00;99.90
52016;DHT22;38032;53.326;6.472;2022-11-27T02:03:26;6.00;99.90
52016;DHT22;38032;53.326;6.472;2022-11-27T02:05:52;5.90;99.90
52016;DHT22;38032;53.326;6.472;2022-11-27T02:08:18;6.00;99.90
52016;DHT22;38032;53.326;6.472;2022-11-27T02:11:04;5.90;99.90
52016;DHT22;38032;53.326;6.472;2022-11-27T02:13:53;5.90;99.90
52016;DHT22;38032;53.326;6.472;2022-11-27T02:16:30;5.90;99.90
52016;DHT22;38032;53.326;6.472;2022-11-27T02:21:55;5.90;99.90
52016;DHT22;38032;53.326;6.472;2022-11-27T02:24:46;5.90;99.90
52016;DHT22;38032;53.326;6.472;2022-11-27T02:30:00;5.90;99.90
52016;DHT22;38032;53.326;6.472;2022-11-27T02:32:35;5.90;99.90
52016;DHT22;38032;53.326;6.472;2022-11-27T02:35:17;5.90;99.90
52016;DHT22;38032;53.326;6.472;2022-11-27T02:37:55;5.90;99.90
52016;DHT22;38032;53.326;6.472;2022-11-27T02:43:58;5.90;99.90
52016;DHT22;38032;53.326;6.472;2022-11-27T02:46:25;6.00;99.90
52016;DHT22;38032;53.326;6.472;2022-11-27T02:48:56;6.00;99.90
52016;DHT22;38032;53.326;6.472;2022-11-27T02:51:29;6.00;99.90
52016;DHT22;38032;53.326;6.472;2022-11-27T02:54:03;6.10;99.90
52016;DHT22;38032;53.326;6.472;2022-11-27T02:56:31;6.10;99.90
52016;DHT22;38032;53.326;6.472;2022-11-27T02:59:02;6.10;99.90
52016;DHT22;38032;53.326;6.472;2022-11-27T03:01:31;6.20;99.90
52016;DHT22;38032;53.326;6.472;2022-11-27T03:03:59;6.20;99.90
52016;DHT22;38032;53.326;6.472;2022-11-27T03:06:32;6.20;99.90
52016;DHT22;38032;53.326;6.472;2022-11-27T03:09:05;6.30;99.90
52016;DHT22;38032;53.326;6.472;2022-11-27T03:11:33;6.30;99.90
52016;DHT22;38032;53.326;6.472;2022-11-27T03:14:03;6.30;99.90
52016;DHT22;38032;53.326;6.472;2022-11-27T03:16:47;6.30;99.90
52016;DHT22;38032;53.326;6.472;2022-11-27T03:19:37;6.30;99.90
52016;DHT22;38032;53.326;6.472;2022-11-27T03:22:05;6.30;99.90
52016;DHT22;38032;53.326;6.472;2022-11-27T03:24:33;6.30;99.90
52016;DHT22;38032;53.326;6.472;2022-11-27T03:27:01;6.30;99.90
52016;DHT22;38032;53.326;6.472;2022-11-27T03:29:34;6.30;99.90
52016;DHT22;38032;53.326;6.472;2022-11-27T03:32:02;6.30;99.90
52016;DHT22;38032;53.326;6.472;2022-11-27T03:34:29;6.30;99.90
52016;DHT22;38032;53.326;6.472;2022-11-27T03:36:55;6.40;99.90
52016;DHT22;38032;53.326;6.472;2022-11-27T03:39:22;6.40;99.90
52016;DHT22;38032;53.326;6.472;2022-11-27T03:42:04;6.40;99.90
52016;DHT22;38032;53.326;6.472;2022-11-27T03:44:44;6.40;99.90
52016;DHT22;38032;53.326;6.472;2022-11-27T03:47:31;6.40;99.90
52016;DHT22;38032;53.326;6.472;2022-11-27T03:50:16;6.40;99.90
52016;DHT22;38032;53.326;6.472;2022-11-27T03:52:49;6.50;99.90
52016;DHT22;38032;53.326;6.472;2022-11-27T03:55:32;6.50;99.90
52016;DHT22;38032;53.326;6.472;2022-11-27T03:58:07;6.50;99.90
52016;DHT22;38032;53.326;6.472;2022-11-27T04:00:37;6.50;99.90
52016;DHT22;38032;53.326;6.472;2022-11-27T04:03:04;6.50;99.90
52016;DHT22;38032;53.326;6.472;2022-11-27T04:05:30;6.50;99.90
52016;DHT22;38032;53.326;6.472;2022-11-27T04:07:55;6.50;99.90
52016;DHT22;38032;53.326;6.472;2022-11-27T04:10:21;6.50;99.90
52016;DHT22;38032;53.326;6.472;2022-11-27T04:12:47;6.50;99.90
52016;DHT22;38032;53.326;6.472;2022-11-27T04:15:13;6.50;99.90
52016;DHT22;38032;53.326;6.472;2022-11-27T04:17:39;6.50;99.90
52016;DHT22;38032;53.326;6.472;2022-11-27T04:20:06;6.50;99.90
52016;DHT22;38032;53.326;6.472;2022-11-27T04:22:32;6.50;99.90
52016;DHT22;38032;53.326;6.472;2022-11-27T04:24:58;6.50;99.90
52016;DHT22;38032;53.326;6.472;2022-11-27T04:27:23;6.50;99.90
52016;DHT22;38032;53.326;6.472;2022-11-27T04:29:49;6.50;99.90
52016;DHT22;38032;53.326;6.472;2022-11-27T04:32:15;6.50;99.90
52016;DHT22;38032;53.326;6.472;2022-11-27T04:34:42;6.50;99.90
52016;DHT22;38032;53.326;6.472;2022-11-27T04:37:07;6.50;99.90
52016;DHT22;38032;53.326;6.472;2022-11-27T04:39:33;6.50;99.90
52016;DHT22;38032;53.326;6.472;2022-11-27T04:41:59;6.50;99.90
52016;DHT22;38032;53.326;6.472;2022-11-27T04:44:25;6.60;99.90
52016;DHT22;38032;53.326;6.472;2022-11-27T04:46:51;6.60;99.90
52016;DHT22;38032;53.326;6.472;2022-11-27T04:49:17;6.60;99.90
52016;DHT22;38032;53.326;6.472;2022-11-27T04:51:42;6.60;99.90
52016;DHT22;38032;53.326;6.472;2022-11-27T04:54:08;6.60;99.90
52016;DHT22;38032;53.326;6.472;2022-11-27T04:56:34;6.60;99.90
52016;DHT22;38032;53.326;6.472;2022-11-27T04:59:00;6.60;99.90
52016;DHT22;38032;53.326;6.472;2022-11-27T05:01:26;6.60;99.90
52016;DHT22;38032;53.326;6.472;2022-11-27T05:03:52;6.60;99.90
52016;DHT22;38032;53.326;6.472;2022-11-27T05:06:17;6.60;99.90
52016;DHT22;38032;53.326;6.472;2022-11-27T05:08:44;6.60;99.90
52016;DHT22;38032;53.326;6.472;2022-11-27T05:11:12;6.60;99.90
52016;DHT22;38032;53.326;6.472;2022-11-27T05:13:39;6.60;99.90
52016;DHT22;38032;53.326;6.472;2022-11-27T05:16:05;6.60;99.90
52016;DHT22;38032;53.326;6.472;2022-11-27T05:18:31;6.60;99.90
52016;DHT22;38032;53.326;6.472;2022-11-27T05:20:59;6.60;99.90
52016;DHT22;38032;53.326;6.472;2022-11-27T05:23:26;6.60;99.90
52016;DHT22;38032;53.326;6.472;2022-11-27T05:25:52;6.60;99.90
52016;DHT22;38032;53.326;6.472;2022-11-27T05:28:19;6.60;99.90
52016;DHT22;38032;53.326;6.472;2022-11-27T05:30:45;6.60;99.90
52016;DHT22;38032;53.326;6.472;2022-11-27T05:33:12;6.50;99.90
52016;DHT22;38032;53.326;6.472;2022-11-27T05:35:38;6.50;99.90
52016;DHT22;38032;53.326;6.472;2022-11-27T05:38:04;6.50;99.90
52016;DHT22;38032;53.326;6.472;2022-11-27T05:40:30;6.50;99.90
52016;DHT22;38032;53.326;6.472;2022-11-27T05:42:56;6.50;99.90
52016;DHT22;38032;53.326;6.472;2022-11-27T05:45:22;6.50;99.90
52016;DHT22;38032;53.326;6.472;2022-11-27T05:47:48;6.40;99.90
52016;DHT22;38032;53.326;6.472;2022-11-27T05:50:14;6.40;99.90
52016;DHT22;38032;53.326;6.472;2022-11-27T05:52:40;6.40;99.90
52016;DHT22;38032;53.326;6.472;2022-11-27T05:55:06;6.40;99.90
52016;DHT22;38032;53.326;6.472;2022-11-27T05:57:32;6.40;99.90
52016;DHT22;38032;53.326;6.472;2022-11-27T05:59:58;6.40;99.90
52016;DHT22;38032;53.326;6.472;2022-11-27T06:02:25;6.40;99.90
52016;DHT22;38032;53.326;6.472;2022-11-27T06:04:51;6.40;99.90
52016;DHT22;38032;53.326;6.472;2022-11-27T06:07:17;6.40;99.90
52016;DHT22;38032;53.326;6.472;2022-11-27T06:09:43;6.40;99.90
52016;DHT22;38032;53.326;6.472;2022-11-27T06:12:09;6.40;99.90
52016;DHT22;38032;53.326;6.472;2022-11-27T06:14:35;6.40;99.90
52016;DHT22;38032;53.326;6.472;2022-11-27T06:17:02;6.40;99.90
52016;DHT22;38032;53.326;6.472;2022-11-27T06:19:28;6.40;99.90
52016;DHT22;38032;53.326;6.472;2022-11-27T06:21:54;6.40;99.90
52016;DHT22;38032;53.326;6.472;2022-11-27T06:24:20;6.40;99.90
52016;DHT22;38032;53.326;6.472;2022-11-27T06:26:46;6.40;99.90
52016;DHT22;38032;53.326;6.472;2022-11-27T06:29:12;6.40;99.90
52016;DHT22;38032;53.326;6.472;2022-11-27T06:31:38;6.50;99.90
52016;DHT22;38032;53.326;6.472;2022-11-27T06:34:04;6.50;99.90
52016;DHT22;38032;53.326;6.472;2022-11-27T06:36:33;6.50;99.90
52016;DHT22;38032;53.326;6.472;2022-11-27T06:39:00;6.50;99.90
52016;DHT22;38032;53.326;6.472;2022-11-27T06:41:26;6.50;99.90
52016;DHT22;38032;53.326;6.472;2022-11-27T06:43:53;6.50;99.90
52016;DHT22;38032;53.326;6.472;2022-11-27T06:46:20;6.50;99.90
52016;DHT22;38032;53.326;6.472;2022-11-27T06:48:48;6.50;99.90
52016;DHT22;38032;53.326;6.472;2022-11-27T06:51:17;6.60;99.90
52016;DHT22;38032;53.326;6.472;2022-11-27T06:53:44;6.60;99.90
52016;DHT22;38032;53.326;6.472;2022-11-27T06:56:12;6.60;99.90
52016;DHT22;38032;53.326;6.472;2022-11-27T06:58:39;6.60;99.90
52016;DHT22;38032;53.326;6.472;2022-11-27T07:01:08;6.60;99.90
52016;DHT22;38032;53.326;6.472;2022-11-27T07:03:35;6.60;99.90
52016;DHT22;38032;53.326;6.472;2022-11-27T07:06:03;6.70;99.90
52016;DHT22;38032;53.326;6.472;2022-11-27T07:08:29;6.70;99.90
52016;DHT22;38032;53.326;6.472;2022-11-27T07:11:04;6.70;99.90
52016;DHT22;38032;53.326;6.472;2022-11-27T07:13:31;6.60;99.90
52016;DHT22;38032;53.326;6.472;2022-11-27T07:15:59;6.60;99.90
52016;DHT22;38032;53.326;6.472;2022-11-27T07:18:26;6.70;99.90
52016;DHT22;38032;53.326;6.472;2022-11-27T07:20:53;6.70;99.90
52016;DHT22;38032;53.326;6.472;2022-11-27T07:23:19;6.60;99.90
52016;DHT22;38032;53.326;6.472;2022-11-27T07:25:45;6.60;99.90
52016;DHT22;38032;53.326;6.472;2022-11-27T07:28:11;6.60;99.90
52016;DHT22;38032;53.326;6.472;2022-11-27T07:30:37;6.60;99.90
52016;DHT22;38032;53.326;6.472;2022-11-27T07:33:02;6.60;99.90
52016;DHT22;38032;53.326;6.472;2022-11-27T07:35:28;6.60;99.90
52016;DHT22;38032;53.326;6.472;2022-11-27T07:37:54;6.60;99.90
52016;DHT22;38032;53.326;6.472;2022-11-27T07:40:20;6.60;99.90
52016;DHT22;38032;53.326;6.472;2022-11-27T07:42:46;6.60;99.90
52016;DHT22;38032;53.326;6.472;2022-11-27T07:45:12;6.60;99.90
52016;DHT22;38032;53.326;6.472;2022-11-27T07:47:38;6.60;99.90
52016;DHT22;38032;53.326;6.472;2022-11-27T07:50:05;6.50;99.90
52016;DHT22;38032;53.326;6.472;2022-11-27T07:52:35;6.50;99.90
52016;DHT22;38032;53.326;6.472;2022-11-27T07:55:01;6.60;99.90
52016;DHT22;38032;53.326;6.472;2022-11-27T07:57:27;6.60;99.90
52016;DHT22;38032;53.326;6.472;2022-11-27T07:59:53;6.60;99.90
52016;DHT22;38032;53.326;6.472;2022-11-27T08:02:19;6.60;99.90
52016;DHT22;38032;53.326;6.472;2022-11-27T08:04:45;6.70;99.90
52016;DHT22;38032;53.326;6.472;2022-11-27T08:07:11;6.70;99.90
52016;DHT22;38032;53.326;6.472;2022-11-27T08:09:37;6.80;99.90
52016;DHT22;38032;53.326;6.472;2022-11-27T08:12:05;6.80;99.90
52016;DHT22;38032;53.326;6.472;2022-11-27T08:14:31;6.80;99.90
52016;DHT22;38032;53.326;6.472;2022-11-27T08:16:57;6.80;99.90
52016;DHT22;38032;53.326;6.472;2022-11-27T08:19:23;6.90;99.90
52016;DHT22;38032;53.326;6.472;2022-11-27T08:21:49;6.90;99.90
52016;DHT22;38032;53.326;6.472;2022-11-27T08:24:15;6.90;99.90
52016;DHT22;38032;53.326;6.472;2022-11-27T08:26:41;6.90;99.90
52016;DHT22;38032;53.326;6.472;2022-11-27T08:29:10;6.90;99.90
52016;DHT22;38032;53.326;6.472;2022-11-27T08:31:36;6.90;99.90
52016;DHT22;38032;53.326;6.472;2022-11-27T08:34:02;6.90;99.90
52016;DHT22;38032;53.326;6.472;2022-11-27T08:36:28;6.90;99.90
52016;DHT22;38032;53.326;6.472;2022-11-27T08:38:54;6.90;99.90
52016;DHT22;38032;53.326;6.472;2022-11-27T08:41:21;7.00;99.90
52016;DHT22;38032;53.326;6.472;2022-11-27T08:43:47;7.00;99.90
52016;DHT22;38032;53.326;6.472;2022-11-27T08:46:13;7.00;99.90
52016;DHT22;38032;53.326;6.472;2022-11-27T08:48:39;6.90;99.90
52016;DHT22;38032;53.326;6.472;2022-11-27T08:51:08;6.90;99.90
52016;DHT22;38032;53.326;6.472;2022-11-27T08:53:35;6.90;99.90
52016;DHT22;38032;53.326;6.472;2022-11-27T08:56:07;6.90;99.90
52016;DHT22;38032;53.326;6.472;2022-11-27T08:58:33;6.90;99.90
52016;DHT22;38032;53.326;6.472;2022-11-27T09:01:05;6.90;99.90
52016;DHT22;38032;53.326;6.472;2022-11-27T09:03:31;6.90;99.90
52016;DHT22;38032;53.326;6.472;2022-11-27T09:05:57;6.90;99.90
52016;DHT22;38032;53.326;6.472;2022-11-27T09:08:22;7.00;99.90
52016;DHT22;38032;53.326;6.472;2022-11-27T09:10:48;7.00;99.90
52016;DHT22;38032;53.326;6.472;2022-11-27T09:13:14;7.00;99.90
52016;DHT22;38032;53.326;6.472;2022-11-27T09:15:40;7.00;99.90
52016;DHT22;38032;53.326;6.472;2022-11-27T09:18:06;7.00;99.90
52016;DHT22;38032;53.326;6.472;2022-11-27T09:20:32;7.00;99.90
52016;DHT22;38032;53.326;6.472;2022-11-27T09:22:58;7.00;99.90
52016;DHT22;38032;53.326;6.472;2022-11-27T09:25:27;7.00;99.90
52016;DHT22;38032;53.326;6.472;2022-11-27T09:27:53;7.00;99.90
52016;DHT22;38032;53.326;6.472;2022-11-27T09:30:19;7.00;99.90
52016;DHT22;38032;53.326;6.472;2022-11-27T09:32:45;7.00;99.90
52016;DHT22;38032;53.326;6.472;2022-11-27T09:35:11;7.00;99.90
52016;DHT22;38032;53.326;6.472;2022-11-27T09:37:37;7.00;99.90
52016;DHT22;38032;53.326;6.472;2022-11-27T09:40:03;7.00;99.90
52016;DHT22;38032;53.326;6.472;2022-11-27T09:42:38;6.90;99.90
52016;DHT22;38032;53.326;6.472;2022-11-27T09:45:10;6.90;99.90
52016;DHT22;38032;53.326;6.472;2022-11-27T09:50:12;6.90;99.90
52016;DHT22;38032;53.326;6.472;2022-11-27T09:52:46;6.90;99.90
52016;DHT22;38032;53.326;6.472;2022-11-27T09:57:40;6.90;99.90
52016;DHT22;38032;53.326;6.472;2022-11-27T10:00:16;6.90;99.90
52016;DHT22;38032;53.326;6.472;2022-11-27T10:02:43;7.00;99.90
52016;DHT22;38032;53.326;6.472;2022-11-27T10:05:22;7.00;99.90
52016;DHT22;38032;53.326;6.472;2022-11-27T10:10:43;7.00;99.90
52016;DHT22;38032;53.326;6.472;2022-11-27T10:13:30;7.00;99.90
52016;DHT22;38032;53.326;6.472;2022-11-27T10:16:07;7.10;99.90
52016;DHT22;38032;53.326;6.472;2022-11-27T10:18:41;7.10;99.90
52016;DHT22;38032;53.326;6.472;2022-11-27T10:21:14;7.10;99.90
52016;DHT22;38032;53.326;6.472;2022-11-27T10:23:56;7.10;99.90
52016;DHT22;38032;53.326;6.472;2022-11-27T10:26:33;7.10;99.90
52016;DHT22;38032;53.326;6.472;2022-11-27T10:29:19;7.10;99.90
52016;DHT22;38032;53.326;6.472;2022-11-27T10:31:53;7.10;99.90
52016;DHT22;38032;53.326;6.472;2022-11-27T10:37:13;7.10;99.90
52016;DHT22;38032;53.326;6.472;2022-11-27T10:39:47;7.10;99.90
52016;DHT22;38032;53.326;6.472;2022-11-27T10:42:24;7.10;99.90
52016;DHT22;38032;53.326;6.472;2022-11-27T10:45:05;7.10;99.90
52016;DHT22;38032;53.326;6.472;2022-11-27T10:47:31;7.10;99.90
52016;DHT22;38032;53.326;6.472;2022-11-27T10:49:57;7.10;99.90
52016;DHT22;38032;53.326;6.472;2022-11-27T10:52:24;7.10;99.90
52016;DHT22;38032;53.326;6.472;2022-11-27T10:55:05;7.10;99.90
52016;DHT22;38032;53.326;6.472;2022-11-27T10:58:05;7.10;99.90
52016;DHT22;38032;53.326;6.472;2022-11-27T11:00:33;7.10;99.90
52016;DHT22;38032;53.326;6.472;2022-11-27T11:03:01;7.10;99.90
52016;DHT22;38032;53.326;6.472;2022-11-27T11:05:28;7.20;99.90
52016;DHT22;38032;53.326;6.472;2022-11-27T11:08:01;7.20;99.90
52016;DHT22;38032;53.326;6.472;2022-11-27T11:10:34;7.20;99.90
52016;DHT22;38032;53.326;6.472;2022-11-27T11:13:13;7.30;99.90
52016;DHT22;38032;53.326;6.472;2022-11-27T11:15:51;7.30;99.90
52016;DHT22;38032;53.326;6.472;2022-11-27T11:18:23;7.30;99.90
52016;DHT22;38032;53.326;6.472;2022-11-27T11:20:52;7.30;99.90
52016;DHT22;38032;53.326;6.472;2022-11-27T11:23:23;7.30;99.90
52016;DHT22;38032;53.326;6.472;2022-11-27T11:25:53;7.30;99.90
52016;DHT22;38032;53.326;6.472;2022-11-27T11:28:20;7.30;99.90
52016;DHT22;38032;53.326;6.472;2022-11-27T11:30:57;7.30;99.90
52016;DHT22;38032;53.326;6.472;2022-11-27T11:33:24;7.40;99.90
52016;DHT22;38032;53.326;6.472;2022-11-27T11:35:53;7.40;99.90
52016;DHT22;38032;53.326;6.472;2022-11-27T11:38:27;7.40;99.90
52016;DHT22;38032;53.326;6.472;2022-11-27T11:41:00;7.40;99.90
52016;DHT22;38032;53.326;6.472;2022-11-27T11:43:30;7.40;99.90
52016;DHT22;38032;53.326;6.472;2022-11-27T11:46:05;7.50;99.90
52016;DHT22;38032;53.326;6.472;2022-11-27T11:48:33;7.50;99.90
52016;DHT22;38032;53.326;6.472;2022-11-27T11:51:13;7.50;99.90
52016;DHT22;38032;53.326;6.472;2022-11-27T11:53:43;7.50;99.90
52016;DHT22;38032;53.326;6.472;2022-11-27T11:58:57;7.60;99.90
52016;DHT22;38032;53.326;6.472;2022-11-27T12:01:38;7.60;99.90
52016;DHT22;38032;53.326;6.472;2022-11-27T12:07:23;7.60;99.90
52016;DHT22;38032;53.326;6.472;2022-11-27T12:10:11;7.70;99.90
52016;DHT22;38032;53.326;6.472;2022-11-27T12:12:50;7.70;99.90
52016;DHT22;38032;53.326;6.472;2022-11-27T12:18:07;7.70;99.90
52016;DHT22;38032;53.326;6.472;2022-11-27T12:20:43;7.80;99.90
52016;DHT22;38032;53.326;6.472;2022-11-27T12:25:56;7.70;99.90
52016;DHT22;38032;53.326;6.472;2022-11-27T12:28:40;7.80;99.90
52016;DHT22;38032;53.326;6.472;2022-11-27T12:31:29;7.70;99.90
52016;DHT22;38032;53.326;6.472;2022-11-27T12:34:19;7.80;99.90
52016;DHT22;38032;53.326;6.472;2022-11-27T12:42:23;7.90;99.90
52016;DHT22;38032;53.326;6.472;2022-11-27T12:44:59;7.80;99.90
52016;DHT22;38032;53.326;6.472;2022-11-27T12:47:35;7.90;99.90
52016;DHT22;38032;53.326;6.472;2022-11-27T12:52:42;7.90;99.90
52016;DHT22;38032;53.326;6.472;2022-11-27T12:55:23;7.90;99.90
52016;DHT22;38032;53.326;6.472;2022-11-27T12:57:59;7.90;99.90
52016;DHT22;38032;53.326;6.472;2022-11-27T13:00:29;7.90;99.90
52016;DHT22;38032;53.326;6.472;2022-11-27T13:03:08;7.90;99.90
52016;DHT22;38032;53.326;6.472;2022-11-27T13:05:42;7.90;99.90
52016;DHT22;38032;53.326;6.472;2022-11-27T13:08:30;7.90;99.90
52016;DHT22;38032;53.326;6.472;2022-11-27T13:11:04;8.00;99.90
52016;DHT22;38032;53.326;6.472;2022-11-27T13:13:41;8.00;99.90
52016;DHT22;38032;53.326;6.472;2022-11-27T13:16:13;8.00;99.90
52016;DHT22;38032;53.326;6.472;2022-11-27T13:18:49;7.90;99.90
52016;DHT22;38032;53.326;6.472;2022-11-27T13:21:21;8.00;99.90
52016;DHT22;38032;53.326;6.472;2022-11-27T13:23:51;7.90;99.90
52016;DHT22;38032;53.326;6.472;2022-11-27T13:26:32;7.90;99.90
52016;DHT22;38032;53.326;6.472;2022-11-27T13:29:16;7.90;99.90
52016;DHT22;38032;53.326;6.472;2022-11-27T13:31:45;7.90;99.90
52016;DHT22;38032;53.326;6.472;2022-11-27T13:34:19;7.90;99.90
52016;DHT22;38032;53.326;6.472;2022-11-27T13:36:53;7.90;99.90
52016;DHT22;38032;53.326;6.472;2022-11-27T13:39:22;7.90;99.90
52016;DHT22;38032;53.326;6.472;2022-11-27T13:42:03;7.90;99.90
52016;DHT22;38032;53.326;6.472;2022-11-27T13:44:33;7.90;99.90
52016;DHT22;38032;53.326;6.472;2022-11-27T13:47:08;7.90;99.90
52016;DHT22;38032;53.326;6.472;2022-11-27T13:49:36;7.80;99.90
52016;DHT22;38032;53.326;6.472;2022-11-27T13:54:30;7.70;99.90
52016;DHT22;38032;53.326;6.472;2022-11-27T13:56:56;7.70;99.90
52016;DHT22;38032;53.326;6.472;2022-11-27T13:59:33;7.70;99.90
52016;DHT22;38032;53.326;6.472;2022-11-27T14:02:01;7.70;99.90
52016;DHT22;38032;53.326;6.472;2022-11-27T14:04:29;7.70;99.90
52016;DHT22;38032;53.326;6.472;2022-11-27T14:07:03;7.60;99.90
52016;DHT22;38032;53.326;6.472;2022-11-27T14:09:39;7.60;99.90
52016;DHT22;38032;53.326;6.472;2022-11-27T14:12:25;7.60;99.90
52016;DHT22;38032;53.326;6.472;2022-11-27T14:15:09;7.60;99.90
52016;DHT22;38032;53.326;6.472;2022-11-27T14:17:39;7.60;99.90
52016;DHT22;38032;53.326;6.472;2022-11-27T14:22:46;7.60;99.90
52016;DHT22;38032;53.326;6.472;2022-11-27T14:25:24;7.60;99.90
52016;DHT22;38032;53.326;6.472;2022-11-27T14:28:02;7.60;99.90
52016;DHT22;38032;53.326;6.472;2022-11-27T14:30:32;7.60;99.90
52016;DHT22;38032;53.326;6.472;2022-11-27T14:33:02;7.60;99.90
52016;DHT22;38032;53.326;6.472;2022-11-27T14:35:28;7.60;99.90
52016;DHT22;38032;53.326;6.472;2022-11-27T14:38:07;7.60;99.90
52016;DHT22;38032;53.326;6.472;2022-11-27T14:40:33;7.60;99.90
52016;DHT22;38032;53.326;6.472;2022-11-27T14:43:09;7.60;99.90
52016;DHT22;38032;53.326;6.472;2022-11-27T14:45:35;7.60;99.90
52016;DHT22;38032;53.326;6.472;2022-11-27T14:48:02;7.60;99.90
52016;DHT22;38032;53.326;6.472;2022-11-27T14:50:28;7.60;99.90
52016;DHT22;38032;53.326;6.472;2022-11-27T14:52:55;7.60;99.90
52016;DHT22;38032;53.326;6.472;2022-11-27T14:55:22;7.50;99.90
52016;DHT22;38032;53.326;6.472;2022-11-27T14:57:49;7.50;99.90
52016;DHT22;38032;53.326;6.472;2022-11-27T15:02:41;7.50;99.90
52016;DHT22;38032;53.326;6.472;2022-11-27T15:05:17;7.40;99.90
52016;DHT22;38032;53.326;6.472;2022-11-27T15:07:43;7.40;99.90
52016;DHT22;38032;53.326;6.472;2022-11-27T15:10:22;7.40;99.90
52016;DHT22;38032;53.326;6.472;2022-11-27T15:12:49;7.40;99.90
52016;DHT22;38032;53.326;6.472;2022-11-27T15:15:22;7.40;99.90
52016;DHT22;38032;53.326;6.472;2022-11-27T15:17:54;7.40;99.90
52016;DHT22;38032;53.326;6.472;2022-11-27T15:22:57;7.40;99.90
52016;DHT22;38032;53.326;6.472;2022-11-27T15:25:38;7.40;99.90
52016;DHT22;38032;53.326;6.472;2022-11-27T15:28:29;7.40;99.90
52016;DHT22;38032;53.326;6.472;2022-11-27T15:30:57;7.40;99.90
52016;DHT22;38032;53.326;6.472;2022-11-27T15:33:28;7.40;99.90
52016;DHT22;38032;53.326;6.472;2022-11-27T15:36:13;7.40;99.90
52016;DHT22;38032;53.326;6.472;2022-11-27T15:38:39;7.40;99.90
52016;DHT22;38032;53.326;6.472;2022-11-27T15:43:43;7.40;99.90
52016;DHT22;38032;53.326;6.472;2022-11-27T15:46:12;7.40;99.90
52016;DHT22;38032;53.326;6.472;2022-11-27T15:48:38;7.40;99.90
52016;DHT22;38032;53.326;6.472;2022-11-27T15:51:04;7.40;99.90
52016;DHT22;38032;53.326;6.472;2022-11-27T15:53:30;7.40;99.90
52016;DHT22;38032;53.326;6.472;2022-11-27T15:55:57;7.40;99.90
52016;DHT22;38032;53.326;6.472;2022-11-27T15:58:23;7.40;99.90
52016;DHT22;38032;53.326;6.472;2022-11-27T16:00:49;7.50;99.90
52016;DHT22;38032;53.326;6.472;2022-11-27T16:03:15;7.50;99.90
52016;DHT22;38032;53.326;6.472;2022-11-27T16:05:41;7.40;99.90
52016;DHT22;38032;53.326;6.472;2022-11-27T16:08:07;7.40;99.90
52016;DHT22;38032;53.326;6.472;2022-11-27T16:10:39;7.40;99.90
52016;DHT22;38032;53.326;6.472;2022-11-27T16:13:05;7.40;99.90
52016;DHT22;38032;53.326;6.472;2022-11-27T16:15:32;7.40;99.90
52016;DHT22;38032;53.326;6.472;2022-11-27T16:17:58;7.40;99.90
52016;DHT22;38032;53.326;6.472;2022-11-27T16:20:24;7.40;99.90
52016;DHT22;38032;53.326;6.472;2022-11-27T16:22:50;7.40;99.90
52016;DHT22;38032;53.326;6.472;2022-11-27T16:25:16;7.40;99.90
52016;DHT22;38032;53.326;6.472;2022-11-27T16:27:42;7.40;99.90
52016;DHT22;38032;53.326;6.472;2022-11-27T16:30:09;7.40;99.90
52016;DHT22;38032;53.326;6.472;2022-11-27T16:32:37;7.40;99.90
52016;DHT22;38032;53.326;6.472;2022-11-27T16:35:04;7.40;99.90
52016;DHT22;38032;53.326;6.472;2022-11-27T16:37:30;7.40;99.90
52016;DHT22;38032;53.326;6.472;2022-11-27T16:39:56;7.40;99.90
52016;DHT22;38032;53.326;6.472;2022-11-27T16:42:22;7.30;99.90
52016;DHT22;38032;53.326;6.472;2022-11-27T16:44:48;7.30;99.90
52016;DHT22;38032;53.326;6.472;2022-11-27T16:47:14;7.30;99.90
52016;DHT22;38032;53.326;6.472;2022-11-27T16:49:41;7.30;99.90
52016;DHT22;38032;53.326;6.472;2022-11-27T16:52:07;7.30;99.90
52016;DHT22;38032;53.326;6.472;2022-11-27T16:54:35;7.30;99.90